sensor_id;sensor_type;location;lat;lon;timestamp;P1;durP1;ratioP1;P2;durP2;ratioP2
10074;SDS011;5076;42.680;23.288;2022-09-14T00:01:27;4.30;;;3.57;;
10074;SDS011;5076;42.680;23.288;2022-09-14T00:03:56;3.73;;;3.30;;
10074;SDS011;5076;42.680;23.288;2022-09-14T00:06:22;5.50;;;3.47;;
10074;SDS011;5076;42.680;23.288;2022-09-14T00:08:49;3.80;;;3.40;;
10074;SDS011;5076;42.680;23.288;2022-09-14T00:11:16;5.17;;;3.60;;
10074;SDS011;5076;42.680;23.288;2022-09-14T00:13:43;4.03;;;3.73;;
10074;SDS011;5076;42.680;23.288;2022-09-14T00:16:11;4.27;;;3.47;;
10074;SDS011;5076;42.680;23.288;2022-09-14T00:18:38;3.53;;;3.20;;
10074;SDS011;5076;42.680;23.288;2022-09-14T00:21:07;3.83;;;3.23;;
10074;SDS011;5076;42.680;23.288;2022-09-14T00:23:35;4.20;;;3.70;;
10074;SDS011;5076;42.680;23.288;2022-09-14T00:26:04;5.97;;;3.80;;
10074;SDS011;5076;42.680;23.288;2022-09-14T00:28:34;3.90;;;3.30;;
10074;SDS011;5076;42.680;23.288;2022-09-14T00:31:02;4.30;;;3.90;;
10074;SDS011;5076;42.680;23.288;2022-09-14T00:33:28;4.30;;;3.30;;
10074;SDS011;5076;42.680;23.288;2022-09-14T00:35:55;3.73;;;3.27;;
10074;SDS011;5076;42.680;23.288;2022-09-14T00:38:23;3.83;;;3.53;;
10074;SDS011;5076;42.680;23.288;2022-09-14T00:40:55;3.80;;;3.50;;
10074;SDS011;5076;42.680;23.288;2022-09-14T00:43:22;4.20;;;3.80;;
10074;SDS011;5076;42.680;23.288;2022-09-14T00:45:49;4.07;;;3.77;;
10074;SDS011;5076;42.680;23.288;2022-09-14T00:48:15;3.87;;;3.57;;
10074;SDS011;5076;42.680;23.288;2022-09-14T00:50:42;3.70;;;3.40;;
10074;SDS011;5076;42.680;23.288;2022-09-14T00:53:09;4.40;;;3.27;;
10074;SDS011;5076;42.680;23.288;2022-09-14T00:55:37;3.80;;;3.50;;
10074;SDS011;5076;42.680;23.288;2022-09-14T00:58:04;4.20;;;3.30;;
10074;SDS011;5076;42.680;23.288;2022-09-14T01:00:30;3.87;;;3.40;;
10074;SDS011;5076;42.680;23.288;2022-09-14T01:02:57;4.27;;;3.87;;
10074;SDS011;5076;42.680;23.288;2022-09-14T01:05:26;3.90;;;3.60;;
10074;SDS011;5076;42.680;23.288;2022-09-14T01:08:05;3.53;;;3.23;;
10074;SDS011;5076;42.680;23.288;2022-09-14T01:10:42;3.80;;;3.50;;
10074;SDS011;5076;42.680;23.288;2022-09-14T01:13:15;4.63;;;3.77;;
10074;SDS011;5076;42.680;23.288;2022-09-14T01:15:49;4.37;;;3.90;;
10074;SDS011;5076;42.680;23.288;2022-09-14T01:18:20;4.90;;;3.73;;
10074;SDS011;5076;42.680;23.288;2022-09-14T01:20:49;4.03;;;3.63;;
10074;SDS011;5076;42.680;23.288;2022-09-14T01:23:21;4.47;;;3.80;;
10074;SDS011;5076;42.680;23.288;2022-09-14T01:25:59;3.93;;;3.40;;
10074;SDS011;5076;42.680;23.288;2022-09-14T01:28:33;3.77;;;3.10;;
10074;SDS011;5076;42.680;23.288;2022-09-14T01:31:02;4.47;;;3.60;;
10074;SDS011;5076;42.680;23.288;2022-09-14T01:33:31;4.00;;;3.60;;
10074;SDS011;5076;42.680;23.288;2022-09-14T01:35:58;3.90;;;3.60;;
10074;SDS011;5076;42.680;23.288;2022-09-14T01:38:28;3.90;;;3.17;;
10074;SDS011;5076;42.680;23.288;2022-09-14T01:40:56;3.43;;;3.20;;
10074;SDS011;5076;42.680;23.288;2022-09-14T01:43:24;3.60;;;3.30;;
10074;SDS011;5076;42.680;23.288;2022-09-14T01:45:55;4.17;;;3.50;;
10074;SDS011;5076;42.680;23.288;2022-09-14T01:48:24;3.80;;;3.30;;
10074;SDS011;5076;42.680;23.288;2022-09-14T01:50:52;4.53;;;3.50;;
10074;SDS011;5076;42.680;23.288;2022-09-14T01:53:21;5.57;;;3.57;;
10074;SDS011;5076;42.680;23.288;2022-09-14T01:55:51;6.57;;;3.80;;
10074;SDS011;5076;42.680;23.288;2022-09-14T01:58:20;4.53;;;3.70;;
10074;SDS011;5076;42.680;23.288;2022-09-14T02:00:50;3.80;;;3.50;;
10074;SDS011;5076;42.680;23.288;2022-09-14T02:03:20;4.90;;;3.73;;
10074;SDS011;5076;42.680;23.288;2022-09-14T02:05:49;3.53;;;3.17;;
10074;SDS011;5076;42.680;23.288;2022-09-14T02:08:17;4.33;;;3.30;;
10074;SDS011;5076;42.680;23.288;2022-09-14T02:10:44;4.03;;;3.53;;
10074;SDS011;5076;42.680;23.288;2022-09-14T02:13:10;4.77;;;3.50;;
10074;SDS011;5076;42.680;23.288;2022-09-14T02:15:37;4.07;;;3.27;;
10074;SDS011;5076;42.680;23.288;2022-09-14T02:18:04;3.53;;;3.23;;
10074;SDS011;5076;42.680;23.288;2022-09-14T02:20:33;3.70;;;3.40;;
10074;SDS011;5076;42.680;23.288;2022-09-14T02:23:00;3.93;;;3.53;;
10074;SDS011;5076;42.680;23.288;2022-09-14T02:25:27;3.83;;;3.00;;
10074;SDS011;5076;42.680;23.288;2022-09-14T02:27:53;4.03;;;3.10;;
10074;SDS011;5076;42.680;23.288;2022-09-14T02:30:20;4.33;;;3.40;;
10074;SDS011;5076;42.680;23.288;2022-09-14T02:32:49;4.90;;;3.40;;
10074;SDS011;5076;42.680;23.288;2022-09-14T02:35:22;5.30;;;3.53;;
10074;SDS011;5076;42.680;23.288;2022-09-14T02:37:52;3.80;;;3.47;;
10074;SDS011;5076;42.680;23.288;2022-09-14T02:40:23;4.20;;;3.43;;
10074;SDS011;5076;42.680;23.288;2022-09-14T02:42:54;3.27;;;3.00;;
10074;SDS011;5076;42.680;23.288;2022-09-14T02:45:25;7.20;;;3.60;;
10074;SDS011;5076;42.680;23.288;2022-09-14T02:47:55;4.70;;;3.43;;
10074;SDS011;5076;42.680;23.288;2022-09-14T02:50:23;3.50;;;3.20;;
10074;SDS011;5076;42.680;23.288;2022-09-14T02:52:55;3.80;;;3.50;;
10074;SDS011;5076;42.680;23.288;2022-09-14T02:55:24;6.93;;;4.20;;
10074;SDS011;5076;42.680;23.288;2022-09-14T02:58:00;3.83;;;3.43;;
10074;SDS011;5076;42.680;23.288;2022-09-14T03:00:27;5.90;;;3.70;;
10074;SDS011;5076;42.680;23.288;2022-09-14T03:02:54;4.57;;;4.10;;
10074;SDS011;5076;42.680;23.288;2022-09-14T03:05:20;3.60;;;3.30;;
10074;SDS011;5076;42.680;23.288;2022-09-14T03:07:47;4.53;;;3.80;;
10074;SDS011;5076;42.680;23.288;2022-09-14T03:10:15;4.87;;;3.70;;
10074;SDS011;5076;42.680;23.288;2022-09-14T03:12:42;7.67;;;4.60;;
10074;SDS011;5076;42.680;23.288;2022-09-14T03:15:09;6.13;;;3.27;;
10074;SDS011;5076;42.680;23.288;2022-09-14T03:17:35;4.53;;;3.90;;
10074;SDS011;5076;42.680;23.288;2022-09-14T03:20:02;6.70;;;3.60;;
10074;SDS011;5076;42.680;23.288;2022-09-14T03:22:29;4.83;;;4.13;;
10074;SDS011;5076;42.680;23.288;2022-09-14T03:24:55;4.10;;;3.70;;
10074;SDS011;5076;42.680;23.288;2022-09-14T03:27:23;3.93;;;3.63;;
10074;SDS011;5076;42.680;23.288;2022-09-14T03:29:49;4.53;;;3.90;;
10074;SDS011;5076;42.680;23.288;2022-09-14T03:32:16;6.90;;;4.63;;
10074;SDS011;5076;42.680;23.288;2022-09-14T03:34:42;11.43;;;5.20;;
10074;SDS011;5076;42.680;23.288;2022-09-14T03:37:09;7.73;;;4.70;;
10074;SDS011;5076;42.680;23.288;2022-09-14T03:39:36;6.93;;;3.97;;
10074;SDS011;5076;42.680;23.288;2022-09-14T03:42:02;8.83;;;4.50;;
10074;SDS011;5076;42.680;23.288;2022-09-14T03:44:30;8.60;;;4.63;;
10074;SDS011;5076;42.680;23.288;2022-09-14T03:46:57;9.20;;;4.60;;
10074;SDS011;5076;42.680;23.288;2022-09-14T03:49:23;5.07;;;4.10;;
10074;SDS011;5076;42.680;23.288;2022-09-14T03:51:50;5.50;;;4.17;;
10074;SDS011;5076;42.680;23.288;2022-09-14T03:54:16;9.70;;;4.83;;
10074;SDS011;5076;42.680;23.288;2022-09-14T03:56:43;7.50;;;4.67;;
10074;SDS011;5076;42.680;23.288;2022-09-14T03:59:09;8.63;;;4.90;;
10074;SDS011;5076;42.680;23.288;2022-09-14T04:01:37;11.93;;;6.00;;
10074;SDS011;5076;42.680;23.288;2022-09-14T04:04:04;9.47;;;5.93;;
10074;SDS011;5076;42.680;23.288;2022-09-14T04:06:30;9.60;;;5.47;;
10074;SDS011;5076;42.680;23.288;2022-09-14T04:08:57;11.67;;;4.50;;
10074;SDS011;5076;42.680;23.288;2022-09-14T04:11:24;7.50;;;4.87;;
10074;SDS011;5076;42.680;23.288;2022-09-14T04:13:52;8.53;;;5.47;;
10074;SDS011;5076;42.680;23.288;2022-09-14T04:16:19;18.97;;;5.33;;
10074;SDS011;5076;42.680;23.288;2022-09-14T04:18:47;14.17;;;6.10;;
10074;SDS011;5076;42.680;23.288;2022-09-14T04:21:14;14.23;;;6.33;;
10074;SDS011;5076;42.680;23.288;2022-09-14T04:23:41;10.67;;;5.60;;
10074;SDS011;5076;42.680;23.288;2022-09-14T04:26:09;9.57;;;5.70;;
10074;SDS011;5076;42.680;23.288;2022-09-14T04:28:36;12.47;;;6.40;;
10074;SDS011;5076;42.680;23.288;2022-09-14T04:31:03;14.10;;;6.00;;
10074;SDS011;5076;42.680;23.288;2022-09-14T04:33:30;21.77;;;7.80;;
10074;SDS011;5076;42.680;23.288;2022-09-14T04:35:59;24.33;;;7.20;;
10074;SDS011;5076;42.680;23.288;2022-09-14T04:38:26;23.93;;;6.80;;
10074;SDS011;5076;42.680;23.288;2022-09-14T04:40:53;21.33;;;6.87;;
10074;SDS011;5076;42.680;23.288;2022-09-14T04:43:19;13.97;;;5.80;;
10074;SDS011;5076;42.680;23.288;2022-09-14T04:45:46;12.80;;;6.40;;
10074;SDS011;5076;42.680;23.288;2022-09-14T04:48:13;7.87;;;5.07;;
10074;SDS011;5076;42.680;23.288;2022-09-14T04:50:39;11.07;;;5.67;;
10074;SDS011;5076;42.680;23.288;2022-09-14T04:53:07;7.13;;;5.33;;
10074;SDS011;5076;42.680;23.288;2022-09-14T04:55:34;5.10;;;4.17;;
10074;SDS011;5076;42.680;23.288;2022-09-14T04:58:00;5.37;;;4.57;;
10074;SDS011;5076;42.680;23.288;2022-09-14T05:00:27;7.43;;;5.10;;
10074;SDS011;5076;42.680;23.288;2022-09-14T05:02:53;13.03;;;5.43;;
10074;SDS011;5076;42.680;23.288;2022-09-14T05:05:20;8.90;;;5.00;;
10074;SDS011;5076;42.680;23.288;2022-09-14T05:07:46;7.47;;;5.37;;
10074;SDS011;5076;42.680;23.288;2022-09-14T05:10:14;6.63;;;4.83;;
10074;SDS011;5076;42.680;23.288;2022-09-14T05:12:41;6.47;;;5.57;;
10074;SDS011;5076;42.680;23.288;2022-09-14T05:15:08;7.00;;;5.40;;
10074;SDS011;5076;42.680;23.288;2022-09-14T05:17:34;10.40;;;5.43;;
10074;SDS011;5076;42.680;23.288;2022-09-14T05:20:01;7.07;;;5.37;;
10074;SDS011;5076;42.680;23.288;2022-09-14T05:22:28;9.30;;;5.60;;
10074;SDS011;5076;42.680;23.288;2022-09-14T05:24:54;12.50;;;6.70;;
10074;SDS011;5076;42.680;23.288;2022-09-14T05:27:22;11.27;;;5.30;;
10074;SDS011;5076;42.680;23.288;2022-09-14T05:29:49;7.17;;;5.83;;
10074;SDS011;5076;42.680;23.288;2022-09-14T05:32:15;9.00;;;6.10;;
10074;SDS011;5076;42.680;23.288;2022-09-14T05:34:42;12.60;;;6.50;;
10074;SDS011;5076;42.680;23.288;2022-09-14T05:37:10;8.07;;;5.67;;
10074;SDS011;5076;42.680;23.288;2022-09-14T05:39:36;6.33;;;5.47;;
10074;SDS011;5076;42.680;23.288;2022-09-14T05:42:03;6.77;;;5.43;;
10074;SDS011;5076;42.680;23.288;2022-09-14T05:44:31;10.20;;;5.77;;
10074;SDS011;5076;42.680;23.288;2022-09-14T05:46:58;8.93;;;5.60;;
10074;SDS011;5076;42.680;23.288;2022-09-14T05:49:24;9.73;;;6.07;;
10074;SDS011;5076;42.680;23.288;2022-09-14T05:51:51;11.77;;;6.07;;
10074;SDS011;5076;42.680;23.288;2022-09-14T05:54:17;6.93;;;5.80;;
10074;SDS011;5076;42.680;23.288;2022-09-14T05:56:44;6.43;;;5.43;;
10074;SDS011;5076;42.680;23.288;2022-09-14T05:59:11;11.93;;;5.60;;
10074;SDS011;5076;42.680;23.288;2022-09-14T06:01:38;8.77;;;5.60;;
10074;SDS011;5076;42.680;23.288;2022-09-14T06:04:05;7.80;;;5.80;;
10074;SDS011;5076;42.680;23.288;2022-09-14T06:06:32;6.07;;;4.73;;
10074;SDS011;5076;42.680;23.288;2022-09-14T06:08:59;6.97;;;5.00;;
10074;SDS011;5076;42.680;23.288;2022-09-14T06:11:26;6.93;;;4.93;;
10074;SDS011;5076;42.680;23.288;2022-09-14T06:13:53;8.60;;;5.50;;
10074;SDS011;5076;42.680;23.288;2022-09-14T06:16:21;11.73;;;6.70;;
10074;SDS011;5076;42.680;23.288;2022-09-14T06:18:49;7.73;;;5.83;;
10074;SDS011;5076;42.680;23.288;2022-09-14T06:21:16;10.63;;;5.80;;
10074;SDS011;5076;42.680;23.288;2022-09-14T06:23:44;11.50;;;5.70;;
10074;SDS011;5076;42.680;23.288;2022-09-14T06:26:10;9.87;;;7.10;;
10074;SDS011;5076;42.680;23.288;2022-09-14T06:28:37;9.57;;;5.63;;
10074;SDS011;5076;42.680;23.288;2022-09-14T06:31:04;8.63;;;6.03;;
10074;SDS011;5076;42.680;23.288;2022-09-14T06:33:31;9.53;;;6.23;;
10074;SDS011;5076;42.680;23.288;2022-09-14T06:36:00;7.07;;;5.30;;
10074;SDS011;5076;42.680;23.288;2022-09-14T06:38:27;12.40;;;6.77;;
10074;SDS011;5076;42.680;23.288;2022-09-14T06:40:54;11.53;;;5.80;;
10074;SDS011;5076;42.680;23.288;2022-09-14T06:43:21;10.33;;;5.90;;
10074;SDS011;5076;42.680;23.288;2022-09-14T06:45:54;11.40;;;6.23;;
10074;SDS011;5076;42.680;23.288;2022-09-14T06:48:21;9.77;;;5.87;;
10074;SDS011;5076;42.680;23.288;2022-09-14T06:50:47;7.97;;;5.60;;
10074;SDS011;5076;42.680;23.288;2022-09-14T06:53:15;8.00;;;5.27;;
10074;SDS011;5076;42.680;23.288;2022-09-14T06:55:42;5.53;;;5.03;;
10074;SDS011;5076;42.680;23.288;2022-09-14T06:58:09;5.93;;;4.93;;
10074;SDS011;5076;42.680;23.288;2022-09-14T07:00:36;7.73;;;5.10;;
10074;SDS011;5076;42.680;23.288;2022-09-14T07:03:03;6.43;;;5.03;;
10074;SDS011;5076;42.680;23.288;2022-09-14T07:05:29;6.53;;;4.57;;
10074;SDS011;5076;42.680;23.288;2022-09-14T07:07:56;5.20;;;4.30;;
10074;SDS011;5076;42.680;23.288;2022-09-14T07:10:24;6.73;;;5.27;;
10074;SDS011;5076;42.680;23.288;2022-09-14T07:12:52;7.97;;;5.33;;
10074;SDS011;5076;42.680;23.288;2022-09-14T07:15:19;7.63;;;5.37;;
10074;SDS011;5076;42.680;23.288;2022-09-14T07:17:45;5.63;;;4.23;;
10074;SDS011;5076;42.680;23.288;2022-09-14T07:20:12;7.27;;;4.60;;
10074;SDS011;5076;42.680;23.288;2022-09-14T07:22:39;8.83;;;4.67;;
10074;SDS011;5076;42.680;23.288;2022-09-14T07:25:06;9.10;;;4.70;;
10074;SDS011;5076;42.680;23.288;2022-09-14T07:27:34;9.60;;;4.77;;
10074;SDS011;5076;42.680;23.288;2022-09-14T07:30:03;4.93;;;4.30;;
10074;SDS011;5076;42.680;23.288;2022-09-14T07:32:29;5.73;;;4.27;;
10074;SDS011;5076;42.680;23.288;2022-09-14T07:34:56;4.80;;;4.30;;
10074;SDS011;5076;42.680;23.288;2022-09-14T07:37:22;7.17;;;4.53;;
10074;SDS011;5076;42.680;23.288;2022-09-14T07:39:49;7.50;;;4.30;;
10074;SDS011;5076;42.680;23.288;2022-09-14T07:42:15;22.83;;;7.00;;
10074;SDS011;5076;42.680;23.288;2022-09-14T07:44:43;6.37;;;4.10;;
10074;SDS011;5076;42.680;23.288;2022-09-14T07:47:10;5.30;;;4.47;;
10074;SDS011;5076;42.680;23.288;2022-09-14T07:49:36;4.97;;;3.87;;
10074;SDS011;5076;42.680;23.288;2022-09-14T07:52:03;16.30;;;6.03;;
10074;SDS011;5076;42.680;23.288;2022-09-14T07:54:29;18.00;;;6.77;;
10074;SDS011;5076;42.680;23.288;2022-09-14T07:56:56;13.83;;;4.87;;
10074;SDS011;5076;42.680;23.288;2022-09-14T07:59:23;7.43;;;4.93;;
10074;SDS011;5076;42.680;23.288;2022-09-14T08:01:50;7.40;;;4.30;;
10074;SDS011;5076;42.680;23.288;2022-09-14T08:04:17;10.03;;;5.00;;
10074;SDS011;5076;42.680;23.288;2022-09-14T08:06:44;7.43;;;4.50;;
10074;SDS011;5076;42.680;23.288;2022-09-14T08:09:10;44.97;;;10.90;;
10074;SDS011;5076;42.680;23.288;2022-09-14T08:11:37;14.90;;;4.50;;
10074;SDS011;5076;42.680;23.288;2022-09-14T08:14:04;4.70;;;3.77;;
10074;SDS011;5076;42.680;23.288;2022-09-14T08:16:31;5.90;;;3.57;;
10074;SDS011;5076;42.680;23.288;2022-09-14T08:19:00;7.23;;;4.80;;
10074;SDS011;5076;42.680;23.288;2022-09-14T08:21:28;5.37;;;4.10;;
10074;SDS011;5076;42.680;23.288;2022-09-14T08:23:55;10.17;;;4.37;;
10074;SDS011;5076;42.680;23.288;2022-09-14T08:26:23;5.60;;;3.63;;
10074;SDS011;5076;42.680;23.288;2022-09-14T08:28:50;5.27;;;4.07;;
10074;SDS011;5076;42.680;23.288;2022-09-14T08:31:18;4.73;;;3.97;;
10074;SDS011;5076;42.680;23.288;2022-09-14T08:33:46;14.00;;;5.63;;
10074;SDS011;5076;42.680;23.288;2022-09-14T08:36:15;9.53;;;4.50;;
10074;SDS011;5076;42.680;23.288;2022-09-14T08:38:42;5.00;;;3.53;;
10074;SDS011;5076;42.680;23.288;2022-09-14T08:41:10;11.53;;;3.97;;
10074;SDS011;5076;42.680;23.288;2022-09-14T08:43:37;5.90;;;3.80;;
10074;SDS011;5076;42.680;23.288;2022-09-14T08:46:05;8.07;;;4.37;;
10074;SDS011;5076;42.680;23.288;2022-09-14T08:48:34;5.60;;;4.40;;
10074;SDS011;5076;42.680;23.288;2022-09-14T08:51:01;5.03;;;4.17;;
10074;SDS011;5076;42.680;23.288;2022-09-14T08:53:30;8.30;;;4.23;;
10074;SDS011;5076;42.680;23.288;2022-09-14T08:55:58;4.77;;;3.27;;
10074;SDS011;5076;42.680;23.288;2022-09-14T08:58:28;7.17;;;3.87;;
10074;SDS011;5076;42.680;23.288;2022-09-14T09:00:57;7.27;;;4.47;;
10074;SDS011;5076;42.680;23.288;2022-09-14T09:03:35;7.83;;;4.67;;
10074;SDS011;5076;42.680;23.288;2022-09-14T09:06:05;5.30;;;4.00;;
10074;SDS011;5076;42.680;23.288;2022-09-14T09:08:38;4.67;;;4.03;;
10074;SDS011;5076;42.680;23.288;2022-09-14T09:11:06;6.50;;;4.53;;
10074;SDS011;5076;42.680;23.288;2022-09-14T09:13:35;6.83;;;4.00;;
10074;SDS011;5076;42.680;23.288;2022-09-14T09:16:03;9.77;;;4.40;;
10074;SDS011;5076;42.680;23.288;2022-09-14T09:18:34;6.10;;;4.03;;
10074;SDS011;5076;42.680;23.288;2022-09-14T09:21:02;6.00;;;4.10;;
10074;SDS011;5076;42.680;23.288;2022-09-14T09:23:30;6.40;;;4.40;;
10074;SDS011;5076;42.680;23.288;2022-09-14T09:25:59;7.07;;;3.83;;
10074;SDS011;5076;42.680;23.288;2022-09-14T09:28:26;6.10;;;4.10;;
10074;SDS011;5076;42.680;23.288;2022-09-14T09:30:54;7.97;;;4.40;;
10074;SDS011;5076;42.680;23.288;2022-09-14T09:33:22;3.87;;;3.47;;
10074;SDS011;5076;42.680;23.288;2022-09-14T09:35:49;5.67;;;3.63;;
10074;SDS011;5076;42.680;23.288;2022-09-14T09:38:16;12.33;;;4.37;;
10074;SDS011;5076;42.680;23.288;2022-09-14T09:40:45;7.43;;;3.80;;
10074;SDS011;5076;42.680;23.288;2022-09-14T09:43:14;4.97;;;3.77;;
10074;SDS011;5076;42.680;23.288;2022-09-14T09:45:48;4.63;;;3.83;;
10074;SDS011;5076;42.680;23.288;2022-09-14T09:48:16;5.97;;;3.90;;
10074;SDS011;5076;42.680;23.288;2022-09-14T09:50:46;9.17;;;4.00;;
10074;SDS011;5076;42.680;23.288;2022-09-14T09:53:14;4.93;;;3.77;;
10074;SDS011;5076;42.680;23.288;2022-09-14T09:55:45;6.37;;;3.67;;
10074;SDS011;5076;42.680;23.288;2022-09-14T10:01:04;6.17;;;3.97;;
10074;SDS011;5076;42.680;23.288;2022-09-14T10:03:33;8.43;;;4.17;;
10074;SDS011;5076;42.680;23.288;2022-09-14T10:06:07;4.13;;;3.70;;
10074;SDS011;5076;42.680;23.288;2022-09-14T10:08:44;4.57;;;2.93;;
10074;SDS011;5076;42.680;23.288;2022-09-14T10:11:27;3.57;;;3.00;;
10074;SDS011;5076;42.680;23.288;2022-09-14T10:13:55;4.87;;;3.63;;
10074;SDS011;5076;42.680;23.288;2022-09-14T10:16:23;8.20;;;4.20;;
10074;SDS011;5076;42.680;23.288;2022-09-14T10:18:51;3.20;;;2.80;;
10074;SDS011;5076;42.680;23.288;2022-09-14T10:21:19;5.17;;;2.80;;
10074;SDS011;5076;42.680;23.288;2022-09-14T10:23:46;6.17;;;3.07;;
10074;SDS011;5076;42.680;23.288;2022-09-14T10:26:24;5.23;;;3.50;;
10074;SDS011;5076;42.680;23.288;2022-09-14T10:28:52;8.93;;;2.93;;
10074;SDS011;5076;42.680;23.288;2022-09-14T10:31:25;7.13;;;3.47;;
10074;SDS011;5076;42.680;23.288;2022-09-14T10:33:55;5.67;;;2.63;;
10074;SDS011;5076;42.680;23.288;2022-09-14T10:36:23;5.03;;;3.00;;
10074;SDS011;5076;42.680;23.288;2022-09-14T10:38:51;10.60;;;3.50;;
10074;SDS011;5076;42.680;23.288;2022-09-14T10:41:22;4.67;;;2.73;;
10074;SDS011;5076;42.680;23.288;2022-09-14T10:44:04;2.27;;;1.43;;
10074;SDS011;5076;42.680;23.288;2022-09-14T10:46:37;1.43;;;1.07;;
10074;SDS011;5076;42.680;23.288;2022-09-14T10:49:10;1.93;;;1.43;;
10074;SDS011;5076;42.680;23.288;2022-09-14T10:51:44;3.33;;;1.30;;
10074;SDS011;5076;42.680;23.288;2022-09-14T10:54:15;2.33;;;1.13;;
10074;SDS011;5076;42.680;23.288;2022-09-14T10:56:47;2.20;;;1.10;;
10074;SDS011;5076;42.680;23.288;2022-09-14T10:59:22;2.53;;;0.93;;
10074;SDS011;5076;42.680;23.288;2022-09-14T11:01:58;6.20;;;1.80;;
10074;SDS011;5076;42.680;23.288;2022-09-14T11:07:14;1.47;;;0.93;;
10074;SDS011;5076;42.680;23.288;2022-09-14T11:09:44;2.50;;;1.10;;
10074;SDS011;5076;42.680;23.288;2022-09-14T11:12:16;2.93;;;1.50;;
10074;SDS011;5076;42.680;23.288;2022-09-14T11:14:56;2.17;;;1.60;;
10074;SDS011;5076;42.680;23.288;2022-09-14T11:20:16;4.23;;;1.40;;
10074;SDS011;5076;42.680;23.288;2022-09-14T11:22:46;3.30;;;1.50;;
10074;SDS011;5076;42.680;23.288;2022-09-14T11:25:16;3.03;;;1.17;;
10074;SDS011;5076;42.680;23.288;2022-09-14T11:27:45;4.23;;;1.20;;
10074;SDS011;5076;42.680;23.288;2022-09-14T11:30:14;2.77;;;1.00;;
10074;SDS011;5076;42.680;23.288;2022-09-14T11:32:43;4.10;;;1.27;;
10074;SDS011;5076;42.680;23.288;2022-09-14T11:35:12;2.53;;;1.40;;
10074;SDS011;5076;42.680;23.288;2022-09-14T11:37:42;4.10;;;1.30;;
10074;SDS011;5076;42.680;23.288;2022-09-14T11:40:13;1.77;;;1.20;;
10074;SDS011;5076;42.680;23.288;2022-09-14T11:42:42;1.20;;;1.10;;
10074;SDS011;5076;42.680;23.288;2022-09-14T11:45:13;1.83;;;1.23;;
10074;SDS011;5076;42.680;23.288;2022-09-14T11:47:42;2.70;;;1.20;;
10074;SDS011;5076;42.680;23.288;2022-09-14T11:50:14;1.23;;;1.10;;
10074;SDS011;5076;42.680;23.288;2022-09-14T11:52:44;3.07;;;1.40;;
10074;SDS011;5076;42.680;23.288;2022-09-14T11:55:14;2.10;;;1.43;;
10074;SDS011;5076;42.680;23.288;2022-09-14T11:57:42;2.70;;;1.27;;
10074;SDS011;5076;42.680;23.288;2022-09-14T12:00:22;2.80;;;1.20;;
10074;SDS011;5076;42.680;23.288;2022-09-14T12:03:13;7.80;;;1.90;;
10074;SDS011;5076;42.680;23.288;2022-09-14T12:05:41;1.27;;;1.17;;
10074;SDS011;5076;42.680;23.288;2022-09-14T12:08:37;4.13;;;1.60;;
10074;SDS011;5076;42.680;23.288;2022-09-14T12:11:21;1.77;;;1.10;;
10074;SDS011;5076;42.680;23.288;2022-09-14T12:13:48;2.60;;;1.20;;
10074;SDS011;5076;42.680;23.288;2022-09-14T12:16:14;0.80;;;0.80;;
10074;SDS011;5076;42.680;23.288;2022-09-14T12:18:41;2.50;;;1.20;;
10074;SDS011;5076;42.680;23.288;2022-09-14T12:21:17;11.77;;;2.20;;
10074;SDS011;5076;42.680;23.288;2022-09-14T12:23:46;3.10;;;1.50;;
10074;SDS011;5076;42.680;23.288;2022-09-14T12:29:02;2.55;;;1.25;;
10074;SDS011;5076;42.680;23.288;2022-09-14T12:31:31;1.20;;;1.10;;
10074;SDS011;5076;42.680;23.288;2022-09-14T12:34:13;3.97;;;1.30;;
10074;SDS011;5076;42.680;23.288;2022-09-14T12:39:41;4.45;;;1.10;;
10074;SDS011;5076;42.680;23.288;2022-09-14T12:42:28;2.42;;;1.10;;
10074;SDS011;5076;42.680;23.288;2022-09-14T12:44:56;2.53;;;1.40;;
10074;SDS011;5076;42.680;23.288;2022-09-14T12:47:46;2.13;;;1.27;;
10074;SDS011;5076;42.680;23.288;2022-09-14T12:50:15;2.53;;;1.20;;
10074;SDS011;5076;42.680;23.288;2022-09-14T12:52:44;4.57;;;1.40;;
10074;SDS011;5076;42.680;23.288;2022-09-14T12:55:18;3.13;;;2.00;;
10074;SDS011;5076;42.680;23.288;2022-09-14T12:57:48;6.90;;;1.70;;
10074;SDS011;5076;42.680;23.288;2022-09-14T13:00:17;1.73;;;1.02;;
10074;SDS011;5076;42.680;23.288;2022-09-14T13:02:49;2.80;;;1.20;;
10074;SDS011;5076;42.680;23.288;2022-09-14T13:05:20;1.98;;;1.30;;
10074;SDS011;5076;42.680;23.288;2022-09-14T13:07:48;2.35;;;1.10;;
10074;SDS011;5076;42.680;23.288;2022-09-14T13:10:18;1.40;;;1.13;;
10074;SDS011;5076;42.680;23.288;2022-09-14T13:12:45;3.55;;;1.88;;
10074;SDS011;5076;42.680;23.288;2022-09-14T13:15:15;4.90;;;1.95;;
10074;SDS011;5076;42.680;23.288;2022-09-14T13:17:54;11.20;;;2.80;;
10074;SDS011;5076;42.680;23.288;2022-09-14T13:20:20;5.80;;;2.72;;
10074;SDS011;5076;42.680;23.288;2022-09-14T13:22:47;1.60;;;1.27;;
10074;SDS011;5076;42.680;23.288;2022-09-14T13:25:23;6.40;;;2.17;;
10074;SDS011;5076;42.680;23.288;2022-09-14T13:27:51;1.88;;;1.30;;
10074;SDS011;5076;42.680;23.288;2022-09-14T13:30:18;1.63;;;1.23;;
10074;SDS011;5076;42.680;23.288;2022-09-14T13:32:46;1.95;;;1.20;;
10074;SDS011;5076;42.680;23.288;2022-09-14T13:35:14;3.58;;;1.23;;
10074;SDS011;5076;42.680;23.288;2022-09-14T13:37:41;1.60;;;1.27;;
10074;SDS011;5076;42.680;23.288;2022-09-14T13:40:08;3.47;;;0.98;;
10074;SDS011;5076;42.680;23.288;2022-09-14T13:42:36;2.50;;;0.98;;
10074;SDS011;5076;42.680;23.288;2022-09-14T13:45:03;3.95;;;1.38;;
10074;SDS011;5076;42.680;23.288;2022-09-14T13:47:30;2.75;;;1.40;;
10074;SDS011;5076;42.680;23.288;2022-09-14T13:49:57;1.48;;;1.20;;
10074;SDS011;5076;42.680;23.288;2022-09-14T13:52:29;2.63;;;1.40;;
10074;SDS011;5076;42.680;23.288;2022-09-14T13:55:07;3.03;;;1.58;;
10074;SDS011;5076;42.680;23.288;2022-09-14T13:57:33;6.25;;;2.40;;
10074;SDS011;5076;42.680;23.288;2022-09-14T14:02:46;4.50;;;1.90;;
10074;SDS011;5076;42.680;23.288;2022-09-14T14:05:20;3.58;;;1.67;;
10074;SDS011;5076;42.680;23.288;2022-09-14T14:07:48;3.85;;;1.40;;
10074;SDS011;5076;42.680;23.288;2022-09-14T14:10:25;3.67;;;1.60;;
10074;SDS011;5076;42.680;23.288;2022-09-14T14:12:52;2.53;;;1.52;;
10074;SDS011;5076;42.680;23.288;2022-09-14T14:15:38;3.25;;;1.77;;
10074;SDS011;5076;42.680;23.288;2022-09-14T14:21:02;1.75;;;1.30;;
10074;SDS011;5076;42.680;23.288;2022-09-14T14:23:29;6.05;;;1.77;;
10074;SDS011;5076;42.680;23.288;2022-09-14T14:26:04;7.50;;;2.05;;
10074;SDS011;5076;42.680;23.288;2022-09-14T14:28:31;4.40;;;1.80;;
10074;SDS011;5076;42.680;23.288;2022-09-14T14:30:58;5.78;;;2.42;;
10074;SDS011;5076;42.680;23.288;2022-09-14T14:33:26;3.28;;;1.73;;
10074;SDS011;5076;42.680;23.288;2022-09-14T14:35:55;1.98;;;1.40;;
10074;SDS011;5076;42.680;23.288;2022-09-14T14:38:21;2.63;;;1.30;;
10074;SDS011;5076;42.680;23.288;2022-09-14T14:40:48;8.43;;;2.40;;
10074;SDS011;5076;42.680;23.288;2022-09-14T14:43:16;2.58;;;1.50;;
10074;SDS011;5076;42.680;23.288;2022-09-14T14:45:43;2.35;;;1.60;;
10074;SDS011;5076;42.680;23.288;2022-09-14T14:48:10;3.65;;;1.40;;
10074;SDS011;5076;42.680;23.288;2022-09-14T14:50:37;9.52;;;2.00;;
10074;SDS011;5076;42.680;23.288;2022-09-14T14:53:05;11.48;;;2.10;;
10074;SDS011;5076;42.680;23.288;2022-09-14T14:55:32;2.35;;;1.38;;
10074;SDS011;5076;42.680;23.288;2022-09-14T14:58:02;5.57;;;1.75;;
10074;SDS011;5076;42.680;23.288;2022-09-14T15:00:31;2.42;;;1.55;;
10074;SDS011;5076;42.680;23.288;2022-09-14T15:02:57;3.05;;;1.40;;
10074;SDS011;5076;42.680;23.288;2022-09-14T15:05:24;3.15;;;1.15;;
10074;SDS011;5076;42.680;23.288;2022-09-14T15:07:51;3.55;;;1.25;;
10074;SDS011;5076;42.680;23.288;2022-09-14T15:10:21;2.03;;;1.13;;
10074;SDS011;5076;42.680;23.288;2022-09-14T15:12:48;2.55;;;1.70;;
10074;SDS011;5076;42.680;23.288;2022-09-14T15:15:16;1.48;;;1.20;;